Time;durP1;ratioP1;P1;durP2;ratioP2;P2;SDS_P1;SDS_P2;PMS_P1;PMS_P2;Temp;Humidity;BMP_temperature;BMP_pressure;BME280_temperature;BME280_humidity;BME280_pressure;Samples;Min_cycle;Max_cycle;Signal;HPM_P1;HPM_P2
2022/10/15 00:00:10;;;;;;;61.90;54.30;;;;;;;10.89;75.41;100194.29;107676;1286;23126;-76
2022/10/15 00:02:59;;;;;;;59.20;53.30;;;;;;;10.86;75.52;100186.77;107731;1286;23336;-76
2022/10/15 00:05:27;;;;;;;62.20;55.50;;;;;;;10.85;75.49;100185.27;107872;1280;21964;-76
2022/10/15 00:07:58;;;;;;;65.20;58.50;;;;;;;10.83;75.58;100184.27;108252;1280;22449;-75
2022/10/15 00:10:27;;;;;;;65.40;57.90;;;;;;;10.82;75.61;100183.64;108444;1279;22159;-75
2022/10/15 00:12:56;;;;;;;64.00;57.20;;;;;;;10.81;75.73;100183.00;108264;1280;23610;-76
2022/10/15 00:15:30;;;;;;;63.90;56.50;;;;;;;10.78;75.75;100180.83;108108;1279;23472;-76
2022/10/15 00:17:59;;;;;;;61.80;55.20;;;;;;;10.75;75.79;100180.80;108109;1280;23671;-76
2022/10/15 00:20:29;;;;;;;60.90;52.60;;;;;;;10.72;75.89;100178.45;108226;1280;23619;-76
2022/10/15 00:22:58;;;;;;;59.30;53.30;;;;;;;10.69;75.99;100177.17;108215;1279;23175;-76
2022/10/15 00:25:30;;;;;;;61.20;54.50;;;;;;;10.67;75.98;100174.49;108328;1280;23633;-76
2022/10/15 00:28:01;;;;;;;62.60;55.90;;;;;;;10.66;76.06;100176.29;108319;1280;21946;-75
2022/10/15 00:30:30;;;;;;;63.90;55.80;;;;;;;10.64;76.11;100175.30;108123;1280;21952;-76
2022/10/15 00:33:01;;;;;;;61.70;55.30;;;;;;;10.62;76.05;100174.52;108177;1275;21937;-76
2022/10/15 00:35:35;;;;;;;62.70;54.60;;;;;;;10.63;76.16;100170.31;108138;1280;21959;-75
2022/10/15 00:38:03;;;;;;;60.70;54.30;;;;;;;10.63;76.16;100164.39;108111;1279;22252;-76
2022/10/15 00:40:32;;;;;;;61.30;54.90;;;;;;;10.64;76.10;100157.76;108229;1280;22094;-75
2022/10/15 00:43:02;;;;;;;60.40;54.00;;;;;;;10.63;76.06;100155.88;108328;1271;21992;-76
2022/10/15 00:45:31;;;;;;;58.90;52.50;;;;;;;10.61;76.06;100152.46;108112;1277;22424;-75
2022/10/15 00:48:06;;;;;;;63.40;54.80;;;;;;;10.57;76.06;100148.30;107635;1289;21981;-75
2022/10/15 00:50:35;;;;;;;57.30;51.50;;;;;;;10.53;76.15;100140.60;107633;1289;23117;-75
2022/10/15 00:53:08;;;;;;;60.30;53.70;;;;;;;10.51;76.22;100134.60;107601;1288;21979;-76
2022/10/15 00:55:41;;;;;;;58.90;52.60;;;;;;;10.49;76.23;100132.79;107504;1289;22687;-76
2022/10/15 00:58:21;;;;;;;60.50;52.50;;;;;;;10.46;76.32;100132.20;107496;1289;23067;-76
2022/10/15 01:00:50;;;;;;;59.40;52.90;;;;;;;10.42;76.41;100133.22;107237;1292;21955;-76
2022/10/15 01:03:21;;;;;;;57.90;51.50;;;;;;;10.40;76.44;100135.59;107436;1292;22021;-76
2022/10/15 01:05:59;;;;;;;59.90;53.80;;;;;;;10.38;76.40;100136.55;107546;1292;21947;-76
2022/10/15 01:08:30;;;;;;;60.30;53.70;;;;;;;10.36;76.49;100140.61;107391;1287;21980;-76
2022/10/15 01:11:19;;;;;;;55.50;49.60;;;;;;;10.33;76.50;100137.59;107179;1292;22733;-76
2022/10/15 01:14:46;;;;;;;65.70;55.10;;;;;;;10.29;76.68;100136.52;107788;1289;23771;-76
2022/10/15 01:17:31;;;;;;;57.10;50.80;;;;;;;10.23;76.85;100132.39;107174;1292;23115;-76
2022/10/15 01:20:24;;;;;;;59.20;53.00;;;;;;;10.22;76.88;100127.77;107644;1291;22740;-77
2022/10/15 01:23:20;;;;;;;63.10;56.70;;;;;;;10.21;76.99;100125.70;108006;1288;21944;-76
2022/10/15 01:26:27;;;;;;;66.60;59.20;;;;;;;10.18;76.96;100121.98;107686;1288;22325;-76
2022/10/15 01:29:21;;;;;;;;;;;;;;;10.15;77.02;100121.41;107955;1283;21941;-76
2022/10/15 01:32:06;;;;;;;72.00;60.10;;;;;;;10.04;77.37;100120.27;107899;1288;21981;-76
2022/10/15 01:34:48;;;;;;;64.80;57.80;;;;;;;10.03;77.43;100121.20;107932;1281;23104;-76
2022/10/15 01:37:26;;;;;;;66.00;59.00;;;;;;;10.04;77.44;100116.65;107682;1288;21747;-76
2022/10/15 01:40:13;;;;;;;67.80;60.50;;;;;;;10.03;77.49;100111.63;107836;1287;21976;-76
2022/10/15 01:42:48;;;;;;;64.80;58.00;;;;;;;10.03;77.50;100110.22;107715;1288;22172;-77
2022/10/15 01:45:27;;;;;;;67.10;59.90;;;;;;;10.03;77.47;100108.51;107767;1288;21943;-76
2022/10/15 01:48:26;;;;;;;65.50;58.50;;;;;;;10.02;77.61;100105.93;107919;1289;21957;-76
2022/10/15 01:51:02;;;;;;;64.30;57.50;;;;;;;10.02;77.60;100103.33;107637;1286;23114;-77
2022/10/15 01:53:35;;;;;;;66.10;59.10;;;;;;;10.02;77.62;100099.16;107544;1284;23675;-76
2022/10/15 01:56:14;;;;;;;72.90;65.10;;;;;;;10.03;77.68;100101.86;108167;1280;22022;-77
2022/10/15 01:58:46;;;;;;;78.30;68.90;;;;;;;10.04;77.77;100100.81;108120;1280;23073;-76
2022/10/15 02:01:15;;;;;;;76.80;68.80;;;;;;;10.04;77.72;100096.10;108116;1280;21963;-76
2022/10/15 02:03:50;;;;;;;81.10;72.60;;;;;;;10.05;77.87;100099.73;108099;1280;21907;-75
2022/10/15 02:06:33;;;;;;;74.50;66.30;;;;;;;10.05;77.91;100098.16;108137;1280;22983;-75
2022/10/15 02:09:56;;;;;;;72.30;64.80;;;;;;;10.04;77.85;100092.63;108195;1277;21946;-76
2022/10/15 02:12:53;;;;;;;70.80;63.30;;;;;;;10.00;77.92;100092.08;108259;1280;21919;-76
2022/10/15 02:15:48;;;;;;;68.20;61.20;;;;;;;9.97;78.01;100087.34;108227;1280;23056;-76
2022/10/15 02:18:35;;;;;;;67.80;59.60;;;;;;;9.99;78.07;100087.10;108045;1279;24509;-75
2022/10/15 02:21:15;;;;;;;62.50;56.10;;;;;;;10.01;78.02;100083.54;108142;1279;23043;-75
2022/10/15 02:24:08;;;;;;;60.90;54.60;;;;;;;10.02;77.93;100078.82;108102;1280;23158;-75
2022/10/15 02:26:41;;;;;;;63.80;56.00;;;;;;;9.99;77.97;100079.27;108017;1280;21936;-76
2022/10/15 02:29:17;;;;;;;62.10;55.40;;;;;;;9.98;77.89;100074.44;108265;1280;21943;-75
2022/10/15 02:31:48;;;;;;;61.00;54.60;;;;;;;9.96;78.01;100071.73;108181;1279;23016;-75
2022/10/15 02:34:21;;;;;;;63.60;55.10;;;;;;;9.92;78.06;100065.80;108072;1280;22108;-76
2022/10/15 02:36:52;;;;;;;62.30;55.60;;;;;;;9.90;77.98;100058.93;108129;1266;22536;-76
2022/10/15 02:39:24;;;;;;;61.40;54.40;;;;;;;9.91;78.10;100063.27;108005;1280;23091;-77
2022/10/15 02:41:54;;;;;;;62.60;54.50;;;;;;;9.93;78.20;100052.55;108158;1280;22892;-75
2022/10/15 02:44:27;;;;;;;66.70;58.30;;;;;;;9.95;78.14;100054.91;108065;1278;21992;-75
2022/10/15 02:46:58;;;;;;;69.90;62.40;;;;;;;9.96;78.20;100055.39;108225;1280;23595;-75
2022/10/15 02:49:27;;;;;;;73.50;65.50;;;;;;;9.97;78.06;100052.91;108167;1280;21923;-75
2022/10/15 02:51:56;;;;;;;69.10;61.70;;;;;;;9.96;78.03;100047.91;108278;1280;23093;-74
2022/10/15 02:54:25;;;;;;;73.10;65.40;;;;;;;9.94;78.09;100044.35;108104;1279;21936;-75
2022/10/15 02:56:54;;;;;;;77.30;68.70;;;;;;;9.93;78.01;100041.27;108046;1280;22000;-75
2022/10/15 02:59:25;;;;;;;75.10;67.00;;;;;;;9.91;78.08;100044.13;108287;1280;21956;-76
2022/10/15 03:01:56;;;;;;;77.00;68.90;;;;;;;9.90;78.06;100042.43;108101;1280;22058;-76
2022/10/15 03:04:27;;;;;;;74.00;66.00;;;;;;;9.91;78.12;100037.36;107694;1286;21967;-76
2022/10/15 03:06:56;;;;;;;73.20;65.20;;;;;;;9.90;78.20;100035.46;107923;1285;23962;-76
2022/10/15 03:09:28;;;;;;;68.30;61.20;;;;;;;9.88;78.21;100036.59;107686;1286;21971;-75
2022/10/15 03:12:00;;;;;;;65.00;58.10;;;;;;;9.87;78.30;100036.30;107485;1288;23690;-75
2022/10/15 03:14:34;;;;;;;68.70;58.50;;;;;;;9.86;78.26;100028.36;107498;1288;21982;-78
2022/10/15 03:17:10;;;;;;;66.20;59.40;;;;;;;9.84;78.32;100024.75;107579;1289;21991;-76
2022/10/15 03:19:42;;;;;;;61.80;55.60;;;;;;;9.82;78.43;100023.98;107593;1289;22174;-76
2022/10/15 03:22:11;;;;;;;70.00;62.40;;;;;;;9.80;78.43;100023.34;107603;1285;24300;-76
2022/10/15 03:24:49;;;;;;;71.60;64.20;;;;;;;9.80;78.50;100022.33;107668;1286;21943;-75
2022/10/15 03:27:24;;;;;;;72.20;64.50;;;;;;;9.79;78.40;100012.97;107652;1286;21938;-75
2022/10/15 03:29:53;;;;;;;70.20;62.90;;;;;;;9.78;78.42;100016.13;107855;1280;21956;-77
2022/10/15 03:32:27;;;;;;;66.30;58.20;;;;;;;9.77;78.44;100013.21;108124;1280;23174;-77
2022/10/15 03:35:02;;;;;;;58.90;52.90;;;;;;;9.77;78.37;100009.91;108092;1280;22315;-76
2022/10/15 03:37:34;;;;;;;62.60;54.10;;;;;;;9.77;78.56;100010.45;108113;1280;21948;-76
2022/10/15 03:40:10;;;;;;;55.80;49.90;;;;;;;9.73;78.55;100006.23;108142;1280;21936;-76
2022/10/15 03:42:50;;;;;;;59.20;52.80;;;;;;;9.71;78.65;100005.30;108383;1280;22167;-75
2022/10/15 03:45:23;;;;;;;59.50;50.00;;;;;;;9.70;78.61;100007.78;107732;1285;21947;-76
2022/10/15 03:48:12;;;;;;;57.60;51.30;;;;;;;9.69;78.73;100005.38;107949;1286;23057;-76
2022/10/15 03:50:41;;;;;;;58.60;52.60;;;;;;;9.69;78.73;100002.77;107990;1286;23823;-76
2022/10/15 03:53:10;;;;;;;55.20;49.30;;;;;;;9.69;78.78;100000.68;107957;1282;22220;-76
2022/10/15 03:55:40;;;;;;;55.20;49.50;;;;;;;9.71;78.76;100000.44;107672;1286;21948;-76
2022/10/15 03:58:22;;;;;;;58.50;52.10;;;;;;;9.71;78.76;100003.20;107711;1284;21953;-76
2022/10/15 04:00:59;;;;;;;59.10;52.90;;;;;;;9.72;78.80;99999.52;107704;1286;22060;-77
2022/10/15 04:03:28;;;;;;;57.10;51.10;;;;;;;9.74;78.75;99996.98;107849;1280;22340;-76
2022/10/15 04:05:58;;;;;;;58.10;51.70;;;;;;;9.75;78.78;99997.48;107864;1286;22584;-76
2022/10/15 04:08:31;;;;;;;55.10;49.40;;;;;;;9.76;78.73;99996.25;107879;1286;24339;-76
2022/10/15 04:11:05;;;;;;;55.30;49.60;;;;;;;9.78;78.75;99997.90;107968;1286;22355;-74
2022/10/15 04:13:34;;;;;;;53.70;48.30;;;;;;;9.79;78.72;99991.59;107921;1286;23599;-75
2022/10/15 04:16:05;;;;;;;56.10;50.20;;;;;;;9.79;78.66;99993.17;107723;1286;21945;-76
2022/10/15 04:18:34;;;;;;;53.10;47.30;;;;;;;9.79;78.59;99988.11;107942;1286;21949;-76
2022/10/15 04:21:03;;;;;;;54.80;48.80;;;;;;;9.79;78.66;99981.88;107711;1286;21967;-76
2022/10/15 04:23:34;;;;;;;56.00;48.20;;;;;;;9.79;78.81;99982.20;107942;1286;23696;-76
2022/10/15 04:26:23;;;;;;;54.00;48.50;;;;;;;9.79;78.88;99980.48;107930;1286;23899;-76
2022/10/15 04:28:52;;;;;;;52.50;46.90;;;;;;;9.78;78.91;99984.85;107672;1286;21990;-78
2022/10/15 04:31:22;;;;;;;51.20;45.90;;;;;;;9.81;78.99;99983.69;107941;1280;24133;-78
2022/10/15 04:33:51;;;;;;;49.80;44.30;;;;;;;9.88;79.00;99983.94;108058;1280;22397;-77
2022/10/15 04:36:20;;;;;;;49.30;44.00;;;;;;;9.90;78.85;99982.10;107986;1280;24453;-76
2022/10/15 04:39:00;;;;;;;48.50;43.60;;;;;;;9.91;78.78;99983.27;108207;1280;24497;-77
2022/10/15 04:41:35;;;;;;;48.70;43.90;;;;;;;9.92;78.71;99984.65;108104;1278;21955;-76
2022/10/15 04:44:10;;;;;;;49.80;44.40;;;;;;;9.93;78.60;99986.85;108109;1279;21938;-77
2022/10/15 04:46:43;;;;;;;51.50;46.10;;;;;;;9.98;78.57;99984.59;107997;1280;21945;-77
2022/10/15 04:49:33;;;;;;;53.90;48.40;;;;;;;9.99;78.56;99983.50;108457;1280;23566;-77
2022/10/15 04:52:04;;;;;;;52.70;47.00;;;;;;;9.98;78.46;99983.86;107963;1280;21946;-76
2022/10/15 04:54:50;;;;;;;54.50;46.90;;;;;;;9.96;78.39;99986.03;108148;1280;21994;-77
2022/10/15 04:57:19;;;;;;;50.10;44.80;;;;;;;9.96;78.40;99985.88;108149;1280;23678;-77
2022/10/15 04:59:52;;;;;;;53.70;45.20;;;;;;;9.96;78.37;99983.78;108185;1276;23059;-77
2022/10/15 05:02:52;;;;;;;47.50;42.50;;;;;;;9.97;78.42;99987.73;108345;1280;22068;-76
2022/10/15 05:05:25;;;;;;;47.20;41.70;;;;;;;10.00;78.43;99989.19;108181;1280;23971;-76
2022/10/15 05:08:05;;;;;;;45.10;40.30;;;;;;;10.03;78.39;99994.08;108171;1280;23711;-75
2022/10/15 05:10:44;;;;;;;48.80;41.60;;;;;;;10.06;78.32;99994.33;108104;1280;21997;-77
2022/10/15 05:13:13;;;;;;;45.30;40.70;;;;;;;10.09;78.25;99997.34;108157;1279;21941;-76
2022/10/15 05:15:43;;;;;;;47.10;41.80;;;;;;;10.11;78.20;99997.59;108231;1280;22052;-76
2022/10/15 05:18:15;;;;;;;50.10;45.00;;;;;;;10.14;78.10;99996.42;108179;1280;23679;-76
2022/10/15 05:20:51;;;;;;;49.60;44.30;;;;;;;10.14;78.06;99998.86;108306;1280;22996;-76
2022/10/15 05:23:20;;;;;;;47.90;43.10;;;;;;;10.11;77.93;99991.85;108463;1280;24330;-76
2022/10/15 05:26:02;;;;;;;52.70;46.80;;;;;;;10.06;78.02;99983.55;108351;1275;24544;-76
2022/10/15 05:28:32;;;;;;;49.00;42.30;;;;;;;10.03;78.07;99975.69;108316;1280;23609;-77
2022/10/15 05:31:09;;;;;;;44.40;39.80;;;;;;;10.02;78.14;99972.23;108282;1281;21934;-75
2022/10/15 05:33:47;;;;;;;44.70;40.00;;;;;;;10.01;78.22;99972.08;108162;1280;23091;-76
2022/10/15 05:36:28;;;;;;;42.20;37.90;;;;;;;10.04;78.31;99974.77;108197;1281;22082;-76
2022/10/15 05:39:00;;;;;;;45.50;39.00;;;;;;;10.09;78.24;99971.23;108234;1280;21937;-76
2022/10/15 05:41:30;;;;;;;42.60;37.50;;;;;;;10.16;78.25;99972.20;108103;1280;22406;-75
2022/10/15 05:44:00;;;;;;;40.40;36.20;;;;;;;10.19;78.21;99970.67;107669;1283;24440;-76
2022/10/15 05:46:34;;;;;;;;;;;;;;;10.22;78.09;99968.61;108016;1281;21923;-75
2022/10/15 05:49:05;;;;;;;39.40;35.40;;;;;;;10.14;78.25;99963.20;107915;1283;22861;-75
2022/10/15 05:51:54;;;;;;;40.60;36.40;;;;;;;10.14;78.16;99961.30;107984;1281;21939;-75
2022/10/15 05:54:56;;;;;;;38.10;34.00;;;;;;;10.16;78.19;99960.52;107833;1283;22710;-75
2022/10/15 05:57:36;;;;;;;39.20;35.10;;;;;;;10.21;78.32;99963.94;108088;1283;23593;-75
2022/10/15 06:00:10;;;;;;;40.30;35.90;;;;;;;10.29;78.39;99965.56;107391;1289;22006;-75
2022/10/15 06:02:42;;;;;;;39.50;33.30;;;;;;;10.36;78.31;99964.38;107514;1286;21948;-75
2022/10/15 06:05:11;;;;;;;37.60;33.50;;;;;;;10.43;78.19;99960.61;107953;1286;22081;-75
2022/10/15 06:07:52;;;;;;;40.40;36.10;;;;;;;10.48;78.15;99955.55;107727;1286;22988;-75
2022/10/15 06:10:24;;;;;;;37.80;34.00;;;;;;;10.52;78.05;99951.36;107788;1281;23614;-75
2022/10/15 06:12:54;;;;;;;37.20;33.30;;;;;;;10.57;77.95;99952.19;107801;1278;23634;-76
2022/10/15 06:15:33;;;;;;;38.70;34.00;;;;;;;10.62;77.94;99951.78;107254;1289;21979;-76
2022/10/15 06:18:08;;;;;;;39.00;34.90;;;;;;;10.67;77.94;99951.36;107392;1288;21947;-75
2022/10/15 06:20:43;;;;;;;38.80;34.80;;;;;;;10.74;77.86;99962.38;107767;1289;21964;-75
2022/10/15 06:23:12;;;;;;;40.40;36.20;;;;;;;10.83;77.94;99965.31;107644;1289;21957;-75
2022/10/15 06:25:46;;;;;;;38.30;34.40;;;;;;;10.93;77.98;99965.73;107170;1291;22032;-75
2022/10/15 06:28:16;;;;;;;40.30;36.20;;;;;;;11.02;77.84;99967.94;106880;1295;23717;-75
2022/10/15 06:31:15;;;;;;;41.10;36.20;;;;;;;11.09;77.67;99968.98;106908;1294;21975;-75
2022/10/15 06:34:15;;;;;;;44.20;39.60;;;;;;;11.16;77.70;99976.52;107475;1289;23718;-75
2022/10/15 06:36:45;;;;;;;46.70;42.30;;;;;;;11.25;77.58;99980.61;107201;1293;23018;-76
2022/10/15 06:39:20;;;;;;;;;;;;;;;11.37;77.27;99988.11;107293;1292;21938;-75
2022/10/15 06:42:00;;;;;;;46.20;41.30;;;;;;;11.35;77.56;99988.02;106922;1298;23704;-75
2022/10/15 06:44:46;;;;;;;43.70;39.30;;;;;;;11.41;77.33;99988.79;106924;1286;21960;-76
2022/10/15 06:47:23;;;;;;;46.90;41.10;;;;;;;11.45;76.98;99988.59;107146;1289;22722;-76
2022/10/15 06:50:08;;;;;;;46.70;41.80;;;;;;;11.50;76.79;99987.30;107252;1292;22724;-76
2022/10/15 06:52:43;;;;;;;42.50;38.20;;;;;;;11.55;76.70;99987.41;107055;1295;22410;-77
2022/10/15 06:55:17;;;;;;;;;;;;;;;11.63;76.64;99986.67;107054;1291;22050;-78
2022/10/15 06:58:22;;;;;;;44.00;39.50;;;;;;;11.64;76.92;99984.70;108806;1292;22089;-77
2022/10/15 07:01:27;;;;;;;45.30;40.40;;;;;;;11.80;76.72;99984.64;107476;1286;21956;-78
2022/10/15 07:04:12;;;;;;;46.90;42.00;;;;;;;11.92;76.58;99987.57;107610;1286;21945;-77
2022/10/15 07:06:51;;;;;;;44.70;40.10;;;;;;;12.01;75.92;99988.35;107705;1286;22050;-77
2022/10/15 07:09:37;;;;;;;45.90;41.40;;;;;;;12.04;75.71;99986.13;107712;1283;23017;-77
2022/10/15 07:12:15;;;;;;;44.40;39.90;;;;;;;12.04;75.30;99991.54;108061;1280;21931;-77
2022/10/15 07:14:53;;;;;;;43.00;38.70;;;;;;;12.03;75.29;99991.05;108141;1280;22719;-77
2022/10/15 07:17:34;;;;;;;44.50;39.40;;;;;;;12.11;75.38;99989.27;108151;1280;22807;-76
2022/10/15 07:20:29;;;;;;;42.80;38.40;;;;;;;12.15;75.01;99982.45;107717;1286;21943;-76
2022/10/15 07:23:23;;;;;;;43.70;39.40;;;;;;;12.12;74.61;99979.77;107649;1286;24105;-76
2022/10/15 07:26:21;;;;;;;44.90;40.40;;;;;;;12.06;74.58;99973.11;107756;1286;22009;-76
2022/10/15 07:29:59;;;;;;;;;;;;;;;;;;;;;
2022/10/15 07:33:00;;;;;;;44.30;39.90;;;;;;;12.05;74.92;99979.59;107866;1286;21967;-77
2022/10/15 07:35:56;;;;;;;44.60;39.90;;;;;;;12.17;75.30;99990.02;107767;1285;22102;-77
2022/10/15 07:38:52;;;;;;;43.00;38.70;;;;;;;12.32;75.33;99992.22;107592;1286;23791;-76
2022/10/15 07:42:19;;;;;;;40.50;36.10;;;;;;;12.45;75.05;99997.68;108015;1286;23681;-77
2022/10/15 07:45:15;;;;;;;45.00;39.10;;;;;;;12.51;74.73;99996.33;107792;1286;24283;-77
2022/10/15 07:48:06;;;;;;;43.90;39.20;;;;;;;12.59;74.71;99994.50;107722;1286;23052;-78
2022/10/15 07:51:20;;;;;;;44.30;39.50;;;;;;;12.68;74.48;99995.96;107795;1286;22029;-78
2022/10/15 07:54:44;;;;;;;;;;;;;;;;;;;;;
2022/10/15 08:02:26;;;;;;;44.70;40.10;;;;;;;13.01;74.49;99988.78;108107;1280;22707;-79
2022/10/15 08:05:35;;;;;;;55.20;39.90;;;;;;;13.21;74.58;99982.31;108147;1281;22721;-79
2022/10/15 08:08:53;;;;;;;45.80;40.80;;;;;;;13.42;74.34;99985.22;108274;1280;22710;-76
2022/10/15 08:11:52;;;;;;;46.60;41.80;;;;;;;13.53;73.69;99987.77;108101;1280;21945;-75
2022/10/15 08:15:30;;;;;;;46.10;41.20;;;;;;;13.67;73.55;99989.26;108119;1280;23052;-80
2022/10/15 08:18:17;;;;;;;52.00;46.50;;;;;;;13.84;73.25;99990.18;108262;1280;21960;-78
2022/10/15 08:21:07;;;;;;;62.20;55.90;;;;;;;14.03;72.91;99989.83;108124;1280;21998;-76
2022/10/15 08:23:50;;;;;;;57.70;51.80;;;;;;;14.15;72.63;99991.56;108090;1280;22012;-77
2022/10/15 08:26:35;;;;;;;54.20;48.60;;;;;;;14.20;71.91;99990.24;108085;1280;23086;-78
2022/10/15 08:29:07;;;;;;;62.70;56.10;;;;;;;14.19;71.50;99991.52;108158;1280;21979;-78
2022/10/15 08:31:45;;;;;;;52.30;46.90;;;;;;;14.21;71.56;99989.98;108095;1280;22092;-78
2022/10/15 08:34:47;;;;;;;51.90;46.90;;;;;;;14.21;71.38;99987.54;108095;1280;21968;-78
2022/10/15 08:37:27;;;;;;;47.90;43.30;;;;;;;14.17;71.43;99990.76;105681;1280;23610;-79
2022/10/15 08:40:13;;;;;;;50.40;45.20;;;;;;;14.19;71.44;99989.63;108074;1280;22015;-77
2022/10/15 08:43:03;;;;;;;49.50;44.60;;;;;;;14.22;71.50;99985.56;108049;1280;22091;-77
2022/10/15 08:45:53;;;;;;;51.50;46.40;;;;;;;14.28;71.69;99987.15;108122;1280;22090;-77
2022/10/15 08:48:46;;;;;;;49.20;44.40;;;;;;;14.32;71.54;99984.46;108187;1279;21944;-78
2022/10/15 08:51:46;;;;;;;55.80;50.30;;;;;;;14.37;71.50;99982.56;107626;1286;22013;-78
2022/10/15 08:54:51;;;;;;;52.60;47.40;;;;;;;14.47;71.64;99982.52;107435;1292;22220;-77
2022/10/15 08:57:45;;;;;;;54.70;49.50;;;;;;;14.59;71.50;99981.14;107371;1290;21957;-78
2022/10/15 09:01:01;;;;;;;57.00;51.40;;;;;;;14.71;71.45;99982.52;107485;1292;21950;-77
2022/10/15 09:04:11;;;;;;;54.50;48.70;;;;;;;14.83;71.19;99983.36;107397;1292;22730;-77
2022/10/15 09:07:27;;;;;;;52.40;47.20;;;;;;;14.87;70.55;99979.60;107099;1295;21965;-77
2022/10/15 09:10:33;;;;;;;53.60;48.00;;;;;;;14.95;70.49;99979.29;107248;1292;24335;-77
2022/10/15 09:13:43;;;;;;;69.60;62.20;;;;;;;15.08;70.45;99987.10;107737;1286;21999;-77
2022/10/15 09:16:24;;;;;;;58.00;52.30;;;;;;;15.23;70.29;99990.19;107696;1286;21969;-77
2022/10/15 09:19:31;;;;;;;58.80;53.00;;;;;;;15.36;69.90;99991.95;107919;1286;21948;-77
2022/10/15 09:22:17;;;;;;;57.70;51.70;;;;;;;15.49;69.60;99995.90;107214;1292;21955;-77
2022/10/15 09:24:55;;;;;;;54.70;49.20;;;;;;;15.57;68.97;99996.23;107352;1287;23721;-78
2022/10/15 09:27:35;;;;;;;55.30;50.00;;;;;;;15.63;68.48;99993.06;107751;1285;21971;-77
2022/10/15 09:30:39;;;;;;;57.20;51.30;;;;;;;15.69;68.39;99992.52;107692;1285;22425;-77
2022/10/15 09:33:31;;;;;;;53.20;48.00;;;;;;;15.72;67.88;99994.58;107796;1286;23635;-77
2022/10/15 09:36:37;;;;;;;49.20;44.40;;;;;;;15.69;67.34;99990.08;107970;1286;21979;-77
2022/10/15 09:39:34;;;;;;;52.80;47.50;;;;;;;15.68;67.47;99995.56;107381;1292;24291;-78
2022/10/15 09:42:48;;;;;;;54.00;48.50;;;;;;;15.68;67.28;99998.70;108218;1275;21952;-78
2022/10/15 09:45:25;;;;;;;56.00;47.10;;;;;;;15.66;67.17;99996.02;107558;1289;21955;-77
2022/10/15 09:48:20;;;;;;;51.60;46.50;;;;;;;15.66;67.23;99997.30;107412;1289;21949;-77
2022/10/15 09:51:41;;;;;;;49.50;44.60;;;;;;;15.67;67.22;99999.85;107164;1292;23603;-78
2022/10/15 09:54:55;;;;;;;50.90;45.60;;;;;;;15.73;67.47;99996.98;107228;1292;23687;-78
2022/10/15 09:57:57;;;;;;;51.10;46.00;;;;;;;15.92;67.91;100000.34;107072;1289;21953;-78
2022/10/15 10:01:43;;;;;;;49.40;44.10;;;;;;;16.14;67.29;100007.49;106637;1297;22292;-78
2022/10/15 10:05:46;;;;;;;;;;;;;;;;;;;;;
2022/10/15 10:09:29;;;;;;;43.90;39.70;;;;;;;16.41;66.22;100018.83;105731;1309;22868;-78
2022/10/15 10:12:38;;;;;;;45.50;37.90;;;;;;;16.51;66.08;100020.61;105851;1306;23098;-78
2022/10/15 10:16:08;;;;;;;45.60;41.00;;;;;;;16.64;65.82;100020.65;105959;1302;23242;-78
2022/10/15 10:19:22;;;;;;;42.60;38.00;;;;;;;16.85;65.87;100019.59;106710;1297;22000;-79
2022/10/15 10:23:05;;;;;;;41.00;36.90;;;;;;;17.08;65.30;100022.00;106815;1295;22321;-77
2022/10/15 10:26:45;;;;;;;;;;;;;;;;;;;;;
2022/10/15 10:30:03;;;;;;;;;;;;;;;;;;;;;
2022/10/15 10:33:47;;;;;;;;;;;;;;;;;;;;;
2022/10/15 10:36:36;;;;;;;;;;;;;;;;;;;;;
2022/10/15 10:39:43;;;;;;;;;;;;;;;;;;;;;
2022/10/15 10:42:39;;;;;;;42.20;38.10;;;;;;;17.07;62.58;100017.20;108402;1280;23859;-79
2022/10/15 10:45:22;;;;;;;38.30;34.60;;;;;;;17.20;62.88;100023.48;108209;1280;23027;-79
2022/10/15 10:47:56;;;;;;;38.40;34.90;;;;;;;17.27;62.35;100022.63;108532;1278;21962;-80
2022/10/15 10:50:39;;;;;;;39.20;35.00;;;;;;;17.25;62.11;100016.98;108511;1281;21958;-80
2022/10/15 10:53:33;;;;;;;40.30;36.10;;;;;;;17.29;62.52;100017.24;108341;1280;23713;-80
2022/10/15 10:56:14;;;;;;;41.50;37.50;;;;;;;17.35;62.53;100020.67;108427;1280;21967;-80
2022/10/15 10:59:01;;;;;;;37.80;34.10;;;;;;;17.32;62.32;100020.17;108455;1281;21960;-80
2022/10/15 11:01:40;;;;;;;37.60;34.10;;;;;;;17.24;62.58;100020.54;108425;1280;21957;-80
2022/10/15 11:04:35;;;;;;;37.90;34.60;;;;;;;17.23;63.12;100019.75;108363;1280;21934;-80
2022/10/15 11:07:18;;;;;;;;;;;;;;;;;;;;;
2022/10/15 11:11:07;;;;;;;;;;;;;;;;;;;;;
2022/10/15 11:14:21;;;;;;;40.20;36.40;;;;;;;16.97;63.83;100023.86;108296;1286;21971;-79
2022/10/15 11:17:25;;;;;;;33.80;30.80;;;;;;;16.95;64.13;100022.92;108185;1286;21951;-80
2022/10/15 11:20:32;;;;;;;33.90;30.90;;;;;;;17.01;64.42;100029.41;108199;1286;23102;-80
2022/10/15 11:24:23;;;;;;;;;;;;;;;;;;;;;
2022/10/15 11:28:02;;;;;;;36.00;32.20;;;;;;;16.82;64.26;100030.15;108237;1286;23054;-80
2022/10/15 11:30:55;;;;;;;35.20;31.60;;;;;;;16.75;64.55;100033.78;108140;1286;22017;-83
2022/10/15 11:34:48;;;;;;;32.30;29.20;;;;;;;16.67;64.97;100034.82;108249;1286;21956;-81
2022/10/15 11:38:21;;;;;;;38.00;34.40;;;;;;;16.44;65.54;100034.81;107724;1292;21942;-82
2022/10/15 11:41:53;;;;;;;;;;;;;;;16.35;66.22;100033.47;107568;1292;21957;-80
2022/10/15 11:45:21;;;;;;;86.20;77.70;;;;;;;16.27;67.15;100027.01;107665;1292;22424;-80
2022/10/15 11:48:15;;;;;;;33.30;30.10;;;;;;;16.37;67.39;100022.33;107981;1286;22346;-80
2022/10/15 11:50:59;;;;;;;33.10;30.10;;;;;;;16.37;67.17;100022.27;107752;1286;21979;-81
2022/10/15 11:54:03;;;;;;;33.20;30.20;;;;;;;16.35;67.32;100019.44;107766;1286;21965;-80
2022/10/15 11:56:53;;;;;;;33.70;30.30;;;;;;;16.38;67.66;100018.70;107118;1296;22290;-80
2022/10/15 11:59:49;;;;;;;35.30;32.10;;;;;;;16.41;67.51;100018.16;106671;1298;23902;-80
2022/10/15 12:02:25;;;;;;;33.50;29.90;;;;;;;16.43;67.55;100013.32;106475;1303;21958;-80
2022/10/15 12:05:30;;;;;;;32.70;29.70;;;;;;;16.52;68.12;100011.98;106645;1300;23706;-78
2022/10/15 12:08:01;;;;;;;29.30;26.40;;;;;;;16.66;68.29;100006.60;106296;1300;21971;-78
2022/10/15 12:10:41;;;;;;;29.70;27.00;;;;;;;16.77;67.86;100008.00;105797;1309;24470;-79
2022/10/15 12:13:38;;;;;;;27.90;25.30;;;;;;;16.88;67.79;100009.91;106165;1301;21972;-80
2022/10/15 12:16:23;;;;;;;31.60;28.60;;;;;;;16.98;67.48;100011.85;106616;1297;22152;-79
2022/10/15 12:19:13;;;;;;;29.00;26.10;;;;;;;17.06;67.37;100011.80;106817;1297;21986;-79
2022/10/15 12:22:05;;;;;;;;;;;;;;;;;;;;;
2022/10/15 12:24:43;;;;;;;23.90;21.40;;;;;;;17.08;66.49;100005.66;107376;1292;21978;-77
2022/10/15 12:27:21;;;;;;;27.40;24.80;;;;;;;17.05;66.14;100008.14;107432;1291;21955;-78
2022/10/15 12:30:11;;;;;;;29.90;27.20;;;;;;;17.06;66.09;100007.38;107797;1286;23771;-79
2022/10/15 12:32:51;;;;;;;26.80;24.40;;;;;;;17.04;65.88;100006.52;107876;1281;23045;-78
2022/10/15 12:35:39;;;;;;;26.80;24.20;;;;;;;16.99;65.75;100000.84;107950;1286;23097;-79
2022/10/15 12:38:27;;;;;;;27.40;25.00;;;;;;;16.98;65.61;100000.44;107926;1287;21910;-82
2022/10/15 12:41:11;;;;;;;30.30;27.40;;;;;;;16.97;65.68;100001.56;107825;1288;21978;-80
2022/10/15 12:44:05;;;;;;;30.50;27.50;;;;;;;16.96;65.52;100003.67;108067;1289;21945;-79
2022/10/15 12:46:41;;;;;;;32.80;29.80;;;;;;;16.90;65.42;99998.88;107968;1272;23770;-78
2022/10/15 12:49:25;;;;;;;35.00;31.70;;;;;;;16.91;65.61;99995.80;107879;1286;21969;-78
2022/10/15 12:52:00;;;;;;;31.70;28.60;;;;;;;16.96;65.76;99999.50;108082;1280;21955;-79
2022/10/15 12:54:43;;;;;;;31.10;28.00;;;;;;;17.01;65.68;99999.86;108381;1283;22673;-78
2022/10/15 12:57:40;;;;;;;31.30;28.50;;;;;;;17.01;65.36;99999.13;108168;1280;22067;-77